sensor_id;sensor_type;location;lat;lon;timestamp;P1;durP1;ratioP1;P2;durP2;ratioP2
15132;SDS011;7667;51.232;17.110;2024-03-25T00:02:06;3.43;;;3.13;;
15132;SDS011;7667;51.232;17.110;2024-03-25T00:04:33;3.93;;;3.50;;
15132;SDS011;7667;51.232;17.110;2024-03-25T00:07:01;3.63;;;3.20;;
15132;SDS011;7667;51.232;17.110;2024-03-25T00:09:28;3.83;;;3.40;;
15132;SDS011;7667;51.232;17.110;2024-03-25T00:11:55;4.63;;;3.30;;
15132;SDS011;7667;51.232;17.110;2024-03-25T00:14:22;3.47;;;3.10;;
15132;SDS011;7667;51.232;17.110;2024-03-25T00:16:49;3.47;;;3.00;;
15132;SDS011;7667;51.232;17.110;2024-03-25T00:19:16;4.63;;;3.50;;
15132;SDS011;7667;51.232;17.110;2024-03-25T00:21:43;4.20;;;3.40;;
15132;SDS011;7667;51.232;17.110;2024-03-25T00:24:10;3.37;;;3.07;;
15132;SDS011;7667;51.232;17.110;2024-03-25T00:26:37;3.50;;;3.20;;
15132;SDS011;7667;51.232;17.110;2024-03-25T00:29:04;5.47;;;3.60;;
15132;SDS011;7667;51.232;17.110;2024-03-25T00:31:31;3.53;;;3.23;;
15132;SDS011;7667;51.232;17.110;2024-03-25T00:33:58;3.73;;;3.30;;
15132;SDS011;7667;51.232;17.110;2024-03-25T00:36:24;3.97;;;3.60;;
15132;SDS011;7667;51.232;17.110;2024-03-25T00:38:52;4.17;;;3.77;;
15132;SDS011;7667;51.232;17.110;2024-03-25T00:41:21;4.10;;;3.70;;
15132;SDS011;7667;51.232;17.110;2024-03-25T00:43:48;4.30;;;3.70;;
15132;SDS011;7667;51.232;17.110;2024-03-25T00:46:15;4.63;;;3.90;;
15132;SDS011;7667;51.232;17.110;2024-03-25T00:48:42;4.47;;;4.03;;
15132;SDS011;7667;51.232;17.110;2024-03-25T00:51:09;4.40;;;4.00;;
15132;SDS011;7667;51.232;17.110;2024-03-25T00:53:37;4.30;;;3.90;;
15132;SDS011;7667;51.232;17.110;2024-03-25T00:56:03;5.37;;;4.00;;
15132;SDS011;7667;51.232;17.110;2024-03-25T00:58:31;4.50;;;4.10;;
15132;SDS011;7667;51.232;17.110;2024-03-25T01:00:58;4.73;;;4.20;;
15132;SDS011;7667;51.232;17.110;2024-03-25T01:03:25;5.27;;;4.30;;
15132;SDS011;7667;51.232;17.110;2024-03-25T01:05:52;5.77;;;5.20;;
15132;SDS011;7667;51.232;17.110;2024-03-25T01:08:19;6.20;;;5.70;;
15132;SDS011;7667;51.232;17.110;2024-03-25T01:10:46;6.10;;;5.60;;
15132;SDS011;7667;51.232;17.110;2024-03-25T01:13:13;5.90;;;5.37;;
15132;SDS011;7667;51.232;17.110;2024-03-25T01:15:40;5.50;;;5.10;;
15132;SDS011;7667;51.232;17.110;2024-03-25T01:18:07;4.70;;;4.30;;
15132;SDS011;7667;51.232;17.110;2024-03-25T01:20:34;4.83;;;4.33;;
15132;SDS011;7667;51.232;17.110;2024-03-25T01:23:02;4.43;;;4.00;;
15132;SDS011;7667;51.232;17.110;2024-03-25T01:25:30;4.70;;;4.30;;
15132;SDS011;7667;51.232;17.110;2024-03-25T01:27:57;5.10;;;4.50;;
15132;SDS011;7667;51.232;17.110;2024-03-25T01:30:24;4.73;;;4.23;;
15132;SDS011;7667;51.232;17.110;2024-03-25T01:32:51;4.90;;;4.50;;
15132;SDS011;7667;51.232;17.110;2024-03-25T01:35:18;4.40;;;4.00;;
15132;SDS011;7667;51.232;17.110;2024-03-25T01:37:44;4.13;;;3.73;;
15132;SDS011;7667;51.232;17.110;2024-03-25T01:40:11;4.50;;;4.10;;
15132;SDS011;7667;51.232;17.110;2024-03-25T01:42:40;3.97;;;3.57;;
15132;SDS011;7667;51.232;17.110;2024-03-25T01:45:07;3.80;;;3.50;;
15132;SDS011;7667;51.232;17.110;2024-03-25T01:47:35;4.00;;;3.60;;
15132;SDS011;7667;51.232;17.110;2024-03-25T01:50:05;3.90;;;3.60;;
15132;SDS011;7667;51.232;17.110;2024-03-25T01:52:32;3.80;;;3.40;;
15132;SDS011;7667;51.232;17.110;2024-03-25T01:54:59;5.87;;;4.67;;
15132;SDS011;7667;51.232;17.110;2024-03-25T01:57:29;3.43;;;3.13;;
15132;SDS011;7667;51.232;17.110;2024-03-25T01:59:56;5.00;;;4.40;;
15132;SDS011;7667;51.232;17.110;2024-03-25T02:02:23;4.43;;;3.73;;
15132;SDS011;7667;51.232;17.110;2024-03-25T02:04:50;3.43;;;3.07;;
15132;SDS011;7667;51.232;17.110;2024-03-25T02:07:18;3.60;;;3.30;;
15132;SDS011;7667;51.232;17.110;2024-03-25T02:09:45;3.80;;;3.50;;
15132;SDS011;7667;51.232;17.110;2024-03-25T02:12:13;3.83;;;3.53;;
15132;SDS011;7667;51.232;17.110;2024-03-25T02:14:40;3.77;;;3.47;;
15132;SDS011;7667;51.232;17.110;2024-03-25T02:17:07;6.30;;;5.07;;
15132;SDS011;7667;51.232;17.110;2024-03-25T02:19:35;5.37;;;4.57;;
15132;SDS011;7667;51.232;17.110;2024-03-25T02:22:03;4.03;;;3.70;;
15132;SDS011;7667;51.232;17.110;2024-03-25T02:24:30;4.10;;;3.77;;
15132;SDS011;7667;51.232;17.110;2024-03-25T02:26:57;4.80;;;4.40;;
15132;SDS011;7667;51.232;17.110;2024-03-25T02:29:32;3.87;;;3.57;;
15132;SDS011;7667;51.232;17.110;2024-03-25T02:32:00;4.77;;;4.37;;
15132;SDS011;7667;51.232;17.110;2024-03-25T02:34:26;4.07;;;3.70;;
15132;SDS011;7667;51.232;17.110;2024-03-25T02:36:53;4.73;;;4.33;;
15132;SDS011;7667;51.232;17.110;2024-03-25T02:39:20;5.17;;;4.67;;
15132;SDS011;7667;51.232;17.110;2024-03-25T02:41:47;5.40;;;4.90;;
15132;SDS011;7667;51.232;17.110;2024-03-25T02:44:14;5.33;;;4.83;;
15132;SDS011;7667;51.232;17.110;2024-03-25T02:46:41;5.67;;;5.17;;
15132;SDS011;7667;51.232;17.110;2024-03-25T02:49:09;4.80;;;4.37;;
15132;SDS011;7667;51.232;17.110;2024-03-25T02:51:36;4.63;;;3.93;;
15132;SDS011;7667;51.232;17.110;2024-03-25T02:54:03;4.33;;;3.93;;
15132;SDS011;7667;51.232;17.110;2024-03-25T02:56:30;4.67;;;4.10;;
15132;SDS011;7667;51.232;17.110;2024-03-25T02:58:57;4.90;;;4.00;;
15132;SDS011;7667;51.232;17.110;2024-03-25T03:01:23;4.70;;;4.20;;
15132;SDS011;7667;51.232;17.110;2024-03-25T03:03:50;5.27;;;4.00;;
15132;SDS011;7667;51.232;17.110;2024-03-25T03:06:18;4.10;;;3.73;;
15132;SDS011;7667;51.232;17.110;2024-03-25T03:08:45;4.00;;;3.60;;
15132;SDS011;7667;51.232;17.110;2024-03-25T03:11:12;3.83;;;3.50;;
15132;SDS011;7667;51.232;17.110;2024-03-25T03:13:39;3.87;;;3.47;;
15132;SDS011;7667;51.232;17.110;2024-03-25T03:16:06;3.30;;;3.00;;
15132;SDS011;7667;51.232;17.110;2024-03-25T03:18:34;3.30;;;3.00;;
15132;SDS011;7667;51.232;17.110;2024-03-25T03:21:01;3.20;;;2.83;;
15132;SDS011;7667;51.232;17.110;2024-03-25T03:23:28;4.00;;;3.27;;
15132;SDS011;7667;51.232;17.110;2024-03-25T03:25:55;3.47;;;3.17;;
15132;SDS011;7667;51.232;17.110;2024-03-25T03:28:25;3.50;;;3.20;;
15132;SDS011;7667;51.232;17.110;2024-03-25T03:30:53;3.63;;;3.33;;
15132;SDS011;7667;51.232;17.110;2024-03-25T03:33:20;4.07;;;3.67;;
15132;SDS011;7667;51.232;17.110;2024-03-25T03:35:48;4.03;;;3.63;;
15132;SDS011;7667;51.232;17.110;2024-03-25T03:38:15;3.87;;;3.47;;
15132;SDS011;7667;51.232;17.110;2024-03-25T03:40:42;4.30;;;3.50;;
15132;SDS011;7667;51.232;17.110;2024-03-25T03:43:21;3.57;;;2.90;;
15132;SDS011;7667;51.232;17.110;2024-03-25T03:45:47;3.80;;;3.40;;
15132;SDS011;7667;51.232;17.110;2024-03-25T03:48:14;4.10;;;3.70;;
15132;SDS011;7667;51.232;17.110;2024-03-25T03:50:41;4.07;;;3.73;;
15132;SDS011;7667;51.232;17.110;2024-03-25T03:53:09;3.50;;;3.20;;
15132;SDS011;7667;51.232;17.110;2024-03-25T03:55:36;3.50;;;3.20;;
15132;SDS011;7667;51.232;17.110;2024-03-25T03:58:03;3.40;;;3.10;;
15132;SDS011;7667;51.232;17.110;2024-03-25T04:00:34;3.40;;;3.20;;
15132;SDS011;7667;51.232;17.110;2024-03-25T04:03:01;3.20;;;2.90;;
15132;SDS011;7667;51.232;17.110;2024-03-25T04:05:29;3.40;;;3.10;;
15132;SDS011;7667;51.232;17.110;2024-03-25T04:07:56;2.97;;;2.73;;
15132;SDS011;7667;51.232;17.110;2024-03-25T04:10:23;2.93;;;2.67;;
15132;SDS011;7667;51.232;17.110;2024-03-25T04:12:52;2.53;;;2.33;;
15132;SDS011;7667;51.232;17.110;2024-03-25T04:15:19;2.50;;;2.30;;
15132;SDS011;7667;51.232;17.110;2024-03-25T04:17:47;3.00;;;2.70;;
15132;SDS011;7667;51.232;17.110;2024-03-25T04:20:17;2.70;;;2.50;;
15132;SDS011;7667;51.232;17.110;2024-03-25T04:22:45;2.57;;;2.37;;
15132;SDS011;7667;51.232;17.110;2024-03-25T04:25:13;3.00;;;2.80;;
15132;SDS011;7667;51.232;17.110;2024-03-25T04:27:40;2.93;;;2.60;;
15132;SDS011;7667;51.232;17.110;2024-03-25T04:30:07;3.03;;;2.73;;
15132;SDS011;7667;51.232;17.110;2024-03-25T04:32:35;3.33;;;3.10;;
15132;SDS011;7667;51.232;17.110;2024-03-25T04:35:02;2.70;;;2.50;;
15132;SDS011;7667;51.232;17.110;2024-03-25T04:37:32;3.30;;;3.00;;
15132;SDS011;7667;51.232;17.110;2024-03-25T04:39:59;2.77;;;2.57;;
15132;SDS011;7667;51.232;17.110;2024-03-25T04:42:26;3.00;;;2.70;;
15132;SDS011;7667;51.232;17.110;2024-03-25T04:44:53;2.70;;;2.50;;
15132;SDS011;7667;51.232;17.110;2024-03-25T04:47:20;3.67;;;3.37;;
15132;SDS011;7667;51.232;17.110;2024-03-25T04:49:46;3.20;;;2.90;;
15132;SDS011;7667;51.232;17.110;2024-03-25T04:52:13;2.77;;;2.50;;
15132;SDS011;7667;51.232;17.110;2024-03-25T04:54:44;2.43;;;2.23;;
15132;SDS011;7667;51.232;17.110;2024-03-25T04:57:11;2.60;;;2.03;;
15132;SDS011;7667;51.232;17.110;2024-03-25T04:59:37;2.43;;;2.23;;
15132;SDS011;7667;51.232;17.110;2024-03-25T05:02:04;3.00;;;2.70;;
15132;SDS011;7667;51.232;17.110;2024-03-25T05:04:32;2.70;;;2.30;;
15132;SDS011;7667;51.232;17.110;2024-03-25T05:06:58;2.67;;;2.47;;
15132;SDS011;7667;51.232;17.110;2024-03-25T05:09:25;2.70;;;2.50;;
15132;SDS011;7667;51.232;17.110;2024-03-25T05:11:52;2.47;;;2.27;;
15132;SDS011;7667;51.232;17.110;2024-03-25T05:14:19;2.17;;;1.97;;
15132;SDS011;7667;51.232;17.110;2024-03-25T05:16:46;2.40;;;2.20;;
15132;SDS011;7667;51.232;17.110;2024-03-25T05:19:14;2.60;;;2.40;;
15132;SDS011;7667;51.232;17.110;2024-03-25T05:21:41;2.80;;;2.60;;
15132;SDS011;7667;51.232;17.110;2024-03-25T05:24:08;2.50;;;2.30;;
15132;SDS011;7667;51.232;17.110;2024-03-25T05:26:35;2.43;;;2.23;;
15132;SDS011;7667;51.232;17.110;2024-03-25T05:29:02;3.40;;;2.50;;
15132;SDS011;7667;51.232;17.110;2024-03-25T05:31:28;2.53;;;2.33;;
15132;SDS011;7667;51.232;17.110;2024-03-25T05:33:56;2.60;;;2.40;;
15132;SDS011;7667;51.232;17.110;2024-03-25T05:36:23;3.00;;;2.70;;
15132;SDS011;7667;51.232;17.110;2024-03-25T05:38:50;2.60;;;2.40;;
15132;SDS011;7667;51.232;17.110;2024-03-25T05:41:16;2.80;;;2.60;;
15132;SDS011;7667;51.232;17.110;2024-03-25T05:43:43;2.70;;;2.50;;
15132;SDS011;7667;51.232;17.110;2024-03-25T05:46:10;2.70;;;2.50;;
15132;SDS011;7667;51.232;17.110;2024-03-25T05:48:37;2.20;;;2.00;;
15132;SDS011;7667;51.232;17.110;2024-03-25T05:51:05;2.33;;;2.13;;
15132;SDS011;7667;51.232;17.110;2024-03-25T05:53:33;2.30;;;2.10;;
15132;SDS011;7667;51.232;17.110;2024-03-25T05:56:00;2.60;;;2.40;;
15132;SDS011;7667;51.232;17.110;2024-03-25T05:58:27;2.37;;;1.93;;
15132;SDS011;7667;51.232;17.110;2024-03-25T06:00:54;1.80;;;1.70;;
15132;SDS011;7667;51.232;17.110;2024-03-25T06:03:21;2.10;;;1.90;;
15132;SDS011;7667;51.232;17.110;2024-03-25T06:05:48;2.40;;;2.20;;
15132;SDS011;7667;51.232;17.110;2024-03-25T06:08:15;2.20;;;2.00;;
15132;SDS011;7667;51.232;17.110;2024-03-25T06:10:51;1.90;;;1.80;;
15132;SDS011;7667;51.232;17.110;2024-03-25T06:13:19;1.97;;;1.87;;
15132;SDS011;7667;51.232;17.110;2024-03-25T06:15:46;1.70;;;1.60;;
15132;SDS011;7667;51.232;17.110;2024-03-25T06:18:13;2.13;;;1.93;;
15132;SDS011;7667;51.232;17.110;2024-03-25T06:20:40;2.10;;;1.90;;
15132;SDS011;7667;51.232;17.110;2024-03-25T06:23:07;2.30;;;2.10;;
15132;SDS011;7667;51.232;17.110;2024-03-25T06:25:34;3.07;;;2.80;;
15132;SDS011;7667;51.232;17.110;2024-03-25T06:28:03;4.10;;;2.50;;
15132;SDS011;7667;51.232;17.110;2024-03-25T06:30:30;2.40;;;2.20;;
15132;SDS011;7667;51.232;17.110;2024-03-25T06:33:15;2.83;;;2.60;;
15132;SDS011;7667;51.232;17.110;2024-03-25T06:36:01;2.43;;;2.23;;
15132;SDS011;7667;51.232;17.110;2024-03-25T06:38:28;2.57;;;2.30;;
15132;SDS011;7667;51.232;17.110;2024-03-25T06:40:55;3.20;;;2.33;;
15132;SDS011;7667;51.232;17.110;2024-03-25T06:43:24;2.63;;;2.43;;
15132;SDS011;7667;51.232;17.110;2024-03-25T06:45:52;2.07;;;1.97;;
15132;SDS011;7667;51.232;17.110;2024-03-25T06:48:19;2.20;;;2.00;;
15132;SDS011;7667;51.232;17.110;2024-03-25T06:50:55;3.13;;;1.80;;
15132;SDS011;7667;51.232;17.110;2024-03-25T06:53:22;1.80;;;1.60;;
15132;SDS011;7667;51.232;17.110;2024-03-25T06:55:56;2.10;;;1.60;;
15132;SDS011;7667;51.232;17.110;2024-03-25T06:58:24;1.67;;;1.57;;
15132;SDS011;7667;51.232;17.110;2024-03-25T07:00:52;2.30;;;1.87;;
15132;SDS011;7667;51.232;17.110;2024-03-25T07:03:20;2.00;;;1.80;;
15132;SDS011;7667;51.232;17.110;2024-03-25T07:05:48;2.50;;;1.83;;
15132;SDS011;7667;51.232;17.110;2024-03-25T07:08:18;1.80;;;1.70;;
15132;SDS011;7667;51.232;17.110;2024-03-25T07:10:47;2.97;;;2.00;;
15132;SDS011;7667;51.232;17.110;2024-03-25T07:13:14;2.43;;;2.20;;
15132;SDS011;7667;51.232;17.110;2024-03-25T07:15:42;2.30;;;2.10;;
15132;SDS011;7667;51.232;17.110;2024-03-25T07:18:09;1.93;;;1.83;;
15132;SDS011;7667;51.232;17.110;2024-03-25T07:20:42;2.20;;;2.00;;
15132;SDS011;7667;51.232;17.110;2024-03-25T07:23:10;2.60;;;2.40;;
15132;SDS011;7667;51.232;17.110;2024-03-25T07:25:37;2.60;;;2.40;;
15132;SDS011;7667;51.232;17.110;2024-03-25T07:28:03;2.63;;;2.43;;
15132;SDS011;7667;51.232;17.110;2024-03-25T07:30:31;2.53;;;2.30;;
15132;SDS011;7667;51.232;17.110;2024-03-25T07:32:58;2.77;;;2.57;;
15132;SDS011;7667;51.232;17.110;2024-03-25T07:35:25;3.20;;;2.90;;
15132;SDS011;7667;51.232;17.110;2024-03-25T07:37:52;3.37;;;3.07;;
15132;SDS011;7667;51.232;17.110;2024-03-25T07:40:19;3.40;;;3.10;;
15132;SDS011;7667;51.232;17.110;2024-03-25T07:42:47;3.43;;;3.13;;
15132;SDS011;7667;51.232;17.110;2024-03-25T07:45:14;4.43;;;4.03;;
15132;SDS011;7667;51.232;17.110;2024-03-25T07:47:42;3.80;;;3.50;;
15132;SDS011;7667;51.232;17.110;2024-03-25T07:50:09;4.27;;;3.97;;
15132;SDS011;7667;51.232;17.110;2024-03-25T07:52:36;4.00;;;3.60;;
15132;SDS011;7667;51.232;17.110;2024-03-25T07:55:06;4.10;;;3.70;;
15132;SDS011;7667;51.232;17.110;2024-03-25T07:57:33;4.63;;;4.23;;
15132;SDS011;7667;51.232;17.110;2024-03-25T08:00:01;3.70;;;3.40;;
15132;SDS011;7667;51.232;17.110;2024-03-25T08:02:30;4.10;;;3.70;;
15132;SDS011;7667;51.232;17.110;2024-03-25T08:04:57;3.53;;;3.23;;
15132;SDS011;7667;51.232;17.110;2024-03-25T08:07:24;3.57;;;3.27;;
15132;SDS011;7667;51.232;17.110;2024-03-25T08:09:51;3.40;;;3.07;;
15132;SDS011;7667;51.232;17.110;2024-03-25T08:12:18;4.50;;;3.07;;
15132;SDS011;7667;51.232;17.110;2024-03-25T08:14:45;4.00;;;2.80;;
15132;SDS011;7667;51.232;17.110;2024-03-25T08:17:12;3.63;;;3.17;;
15132;SDS011;7667;51.232;17.110;2024-03-25T08:19:38;4.10;;;3.50;;
15132;SDS011;7667;51.232;17.110;2024-03-25T08:22:05;3.30;;;2.97;;
15132;SDS011;7667;51.232;17.110;2024-03-25T08:24:32;2.53;;;2.33;;
15132;SDS011;7667;51.232;17.110;2024-03-25T08:26:59;2.50;;;2.30;;
15132;SDS011;7667;51.232;17.110;2024-03-25T08:29:26;2.20;;;2.00;;
15132;SDS011;7667;51.232;17.110;2024-03-25T08:31:53;1.67;;;1.50;;
15132;SDS011;7667;51.232;17.110;2024-03-25T08:34:19;1.67;;;1.43;;
15132;SDS011;7667;51.232;17.110;2024-03-25T08:36:46;1.33;;;1.20;;
15132;SDS011;7667;51.232;17.110;2024-03-25T08:39:13;1.10;;;1.00;;
15132;SDS011;7667;51.232;17.110;2024-03-25T08:41:40;1.60;;;1.00;;
15132;SDS011;7667;51.232;17.110;2024-03-25T08:44:07;1.20;;;1.00;;
15132;SDS011;7667;51.232;17.110;2024-03-25T08:46:34;0.90;;;0.83;;
15132;SDS011;7667;51.232;17.110;2024-03-25T08:49:01;1.73;;;1.20;;
15132;SDS011;7667;51.232;17.110;2024-03-25T08:51:29;1.13;;;0.90;;
15132;SDS011;7667;51.232;17.110;2024-03-25T08:53:55;1.30;;;1.20;;
15132;SDS011;7667;51.232;17.110;2024-03-25T08:56:22;7.00;;;1.93;;
15132;SDS011;7667;51.232;17.110;2024-03-25T08:58:50;1.23;;;1.13;;
15132;SDS011;7667;51.232;17.110;2024-03-25T09:01:20;2.63;;;1.20;;
15132;SDS011;7667;51.232;17.110;2024-03-25T09:03:50;1.30;;;1.20;;
15132;SDS011;7667;51.232;17.110;2024-03-25T09:06:17;3.33;;;1.77;;
15132;SDS011;7667;51.232;17.110;2024-03-25T09:08:44;1.60;;;1.50;;
15132;SDS011;7667;51.232;17.110;2024-03-25T09:11:29;1.93;;;1.70;;
15132;SDS011;7667;51.232;17.110;2024-03-25T09:13:56;1.67;;;1.57;;
15132;SDS011;7667;51.232;17.110;2024-03-25T09:16:22;1.93;;;1.73;;
15132;SDS011;7667;51.232;17.110;2024-03-25T09:18:49;1.50;;;1.30;;
15132;SDS011;7667;51.232;17.110;2024-03-25T09:21:16;1.60;;;1.50;;
15132;SDS011;7667;51.232;17.110;2024-03-25T09:23:43;1.30;;;1.20;;
15132;SDS011;7667;51.232;17.110;2024-03-25T09:26:10;1.10;;;1.00;;
15132;SDS011;7667;51.232;17.110;2024-03-25T09:28:37;1.33;;;0.93;;
15132;SDS011;7667;51.232;17.110;2024-03-25T09:31:04;0.87;;;0.87;;
15132;SDS011;7667;51.232;17.110;2024-03-25T09:33:32;1.50;;;1.00;;
15132;SDS011;7667;51.232;17.110;2024-03-25T09:35:59;1.23;;;0.87;;
15132;SDS011;7667;51.232;17.110;2024-03-25T09:38:26;0.83;;;0.80;;
15132;SDS011;7667;51.232;17.110;2024-03-25T09:40:53;1.10;;;1.00;;
15132;SDS011;7667;51.232;17.110;2024-03-25T09:43:24;1.27;;;1.13;;
15132;SDS011;7667;51.232;17.110;2024-03-25T09:45:59;1.40;;;1.10;;
15132;SDS011;7667;51.232;17.110;2024-03-25T09:48:25;2.00;;;1.07;;
15132;SDS011;7667;51.232;17.110;2024-03-25T09:50:53;2.33;;;1.40;;
15132;SDS011;7667;51.232;17.110;2024-03-25T09:53:20;1.20;;;1.10;;
15132;SDS011;7667;51.232;17.110;2024-03-25T09:55:47;3.57;;;1.40;;
15132;SDS011;7667;51.232;17.110;2024-03-25T09:58:14;1.67;;;1.47;;
15132;SDS011;7667;51.232;17.110;2024-03-25T10:00:42;1.80;;;1.60;;
15132;SDS011;7667;51.232;17.110;2024-03-25T10:03:09;2.30;;;2.00;;
15132;SDS011;7667;51.232;17.110;2024-03-25T10:05:37;1.97;;;1.77;;
15132;SDS011;7667;51.232;17.110;2024-03-25T10:08:05;1.70;;;1.60;;
15132;SDS011;7667;51.232;17.110;2024-03-25T10:10:33;1.60;;;1.50;;
15132;SDS011;7667;51.232;17.110;2024-03-25T10:13:03;1.73;;;1.40;;
15132;SDS011;7667;51.232;17.110;2024-03-25T10:15:30;1.50;;;1.40;;
15132;SDS011;7667;51.232;17.110;2024-03-25T10:18:00;1.73;;;1.60;;
15132;SDS011;7667;51.232;17.110;2024-03-25T10:20:27;1.33;;;1.20;;
15132;SDS011;7667;51.232;17.110;2024-03-25T10:22:54;1.37;;;1.27;;
15132;SDS011;7667;51.232;17.110;2024-03-25T10:25:28;1.27;;;1.17;;
15132;SDS011;7667;51.232;17.110;2024-03-25T10:27:56;1.40;;;1.30;;
15132;SDS011;7667;51.232;17.110;2024-03-25T10:30:27;4.07;;;3.17;;
15132;SDS011;7667;51.232;17.110;2024-03-25T10:33:00;1.37;;;1.27;;
15132;SDS011;7667;51.232;17.110;2024-03-25T10:35:29;1.43;;;1.33;;
15132;SDS011;7667;51.232;17.110;2024-03-25T10:38:00;3.17;;;2.10;;
15132;SDS011;7667;51.232;17.110;2024-03-25T10:40:31;1.57;;;1.20;;
15132;SDS011;7667;51.232;17.110;2024-03-25T10:43:03;1.73;;;1.43;;
15132;SDS011;7667;51.232;17.110;2024-03-25T10:45:33;1.30;;;1.20;;
15132;SDS011;7667;51.232;17.110;2024-03-25T10:48:07;1.40;;;1.30;;
15132;SDS011;7667;51.232;17.110;2024-03-25T10:50:43;1.27;;;1.00;;
15132;SDS011;7667;51.232;17.110;2024-03-25T10:53:11;0.60;;;0.60;;
15132;SDS011;7667;51.232;17.110;2024-03-25T10:55:40;1.10;;;1.00;;
15132;SDS011;7667;51.232;17.110;2024-03-25T10:58:07;0.80;;;0.80;;
15132;SDS011;7667;51.232;17.110;2024-03-25T11:00:36;1.40;;;1.00;;
15132;SDS011;7667;51.232;17.110;2024-03-25T11:03:03;1.20;;;0.80;;
15132;SDS011;7667;51.232;17.110;2024-03-25T11:05:32;1.00;;;0.90;;
15132;SDS011;7667;51.232;17.110;2024-03-25T11:08:08;11.43;;;6.10;;
15132;SDS011;7667;51.232;17.110;2024-03-25T11:10:42;0.90;;;0.70;;
15132;SDS011;7667;51.232;17.110;2024-03-25T11:13:10;1.10;;;0.90;;
15132;SDS011;7667;51.232;17.110;2024-03-25T11:15:46;1.13;;;1.03;;
15132;SDS011;7667;51.232;17.110;2024-03-25T11:18:13;1.20;;;1.10;;
15132;SDS011;7667;51.232;17.110;2024-03-25T11:20:42;1.20;;;1.10;;
15132;SDS011;7667;51.232;17.110;2024-03-25T11:23:09;1.63;;;1.00;;
15132;SDS011;7667;51.232;17.110;2024-03-25T11:25:37;1.30;;;1.13;;
15132;SDS011;7667;51.232;17.110;2024-03-25T11:28:04;1.40;;;1.17;;
15132;SDS011;7667;51.232;17.110;2024-03-25T11:30:32;1.10;;;1.00;;
15132;SDS011;7667;51.232;17.110;2024-03-25T11:33:00;1.87;;;1.30;;
15132;SDS011;7667;51.232;17.110;2024-03-25T11:35:30;9.13;;;7.20;;
15132;SDS011;7667;51.232;17.110;2024-03-25T11:38:02;1.67;;;1.30;;
15132;SDS011;7667;51.232;17.110;2024-03-25T11:40:29;1.43;;;1.33;;
15132;SDS011;7667;51.232;17.110;2024-03-25T11:42:56;1.40;;;1.30;;
15132;SDS011;7667;51.232;17.110;2024-03-25T11:45:24;1.80;;;1.27;;
15132;SDS011;7667;51.232;17.110;2024-03-25T11:47:51;2.30;;;1.37;;
15132;SDS011;7667;51.232;17.110;2024-03-25T11:50:19;1.20;;;1.10;;
15132;SDS011;7667;51.232;17.110;2024-03-25T11:52:46;1.63;;;1.33;;
15132;SDS011;7667;51.232;17.110;2024-03-25T11:55:17;1.80;;;1.53;;
15132;SDS011;7667;51.232;17.110;2024-03-25T11:57:44;1.50;;;1.40;;
15132;SDS011;7667;51.232;17.110;2024-03-25T12:00:11;1.63;;;1.40;;
15132;SDS011;7667;51.232;17.110;2024-03-25T12:02:44;2.43;;;1.40;;
15132;SDS011;7667;51.232;17.110;2024-03-25T12:05:14;1.10;;;1.00;;
15132;SDS011;7667;51.232;17.110;2024-03-25T12:07:41;1.10;;;0.90;;
15132;SDS011;7667;51.232;17.110;2024-03-25T12:10:08;0.80;;;0.80;;
15132;SDS011;7667;51.232;17.110;2024-03-25T12:12:53;1.80;;;1.13;;
15132;SDS011;7667;51.232;17.110;2024-03-25T12:15:21;1.60;;;1.37;;
15132;SDS011;7667;51.232;17.110;2024-03-25T12:17:48;1.50;;;1.40;;
15132;SDS011;7667;51.232;17.110;2024-03-25T12:20:16;1.93;;;1.60;;
15132;SDS011;7667;51.232;17.110;2024-03-25T12:22:44;1.87;;;1.70;;
15132;SDS011;7667;51.232;17.110;2024-03-25T12:25:11;2.00;;;1.63;;
15132;SDS011;7667;51.232;17.110;2024-03-25T12:27:38;1.77;;;1.53;;
15132;SDS011;7667;51.232;17.110;2024-03-25T12:30:08;2.57;;;1.90;;
15132;SDS011;7667;51.232;17.110;2024-03-25T12:35:12;2.67;;;2.10;;
15132;SDS011;7667;51.232;17.110;2024-03-25T12:37:44;1.93;;;1.73;;
15132;SDS011;7667;51.232;17.110;2024-03-25T12:40:12;2.97;;;2.13;;
15132;SDS011;7667;51.232;17.110;2024-03-25T12:42:53;2.63;;;2.13;;
15132;SDS011;7667;51.232;17.110;2024-03-25T12:45:21;5.23;;;3.63;;
15132;SDS011;7667;51.232;17.110;2024-03-25T12:47:51;5.27;;;4.17;;
15132;SDS011;7667;51.232;17.110;2024-03-25T12:50:18;8.60;;;6.00;;
15132;SDS011;7667;51.232;17.110;2024-03-25T12:52:46;2.63;;;2.43;;
15132;SDS011;7667;51.232;17.110;2024-03-25T12:55:13;2.63;;;2.30;;
15132;SDS011;7667;51.232;17.110;2024-03-25T12:57:39;2.83;;;2.60;;
15132;SDS011;7667;51.232;17.110;2024-03-25T13:00:07;2.57;;;2.37;;
15132;SDS011;7667;51.232;17.110;2024-03-25T13:02:35;2.50;;;2.27;;
15132;SDS011;7667;51.232;17.110;2024-03-25T13:05:01;2.60;;;2.17;;
15132;SDS011;7667;51.232;17.110;2024-03-25T13:07:30;3.23;;;2.27;;
15132;SDS011;7667;51.232;17.110;2024-03-25T13:09:57;3.10;;;2.50;;
15132;SDS011;7667;51.232;17.110;2024-03-25T13:12:24;2.63;;;2.00;;
15132;SDS011;7667;51.232;17.110;2024-03-25T13:14:51;3.23;;;2.40;;
15132;SDS011;7667;51.232;17.110;2024-03-25T13:17:18;2.50;;;2.30;;
15132;SDS011;7667;51.232;17.110;2024-03-25T13:19:45;2.50;;;2.20;;
15132;SDS011;7667;51.232;17.110;2024-03-25T13:22:11;3.07;;;1.90;;
15132;SDS011;7667;51.232;17.110;2024-03-25T13:24:39;2.10;;;1.80;;
15132;SDS011;7667;51.232;17.110;2024-03-25T13:27:05;1.90;;;1.70;;
15132;SDS011;7667;51.232;17.110;2024-03-25T13:29:32;2.13;;;1.87;;
15132;SDS011;7667;51.232;17.110;2024-03-25T13:32:03;1.70;;;1.50;;
15132;SDS011;7667;51.232;17.110;2024-03-25T13:34:29;11.73;;;5.90;;
15132;SDS011;7667;51.232;17.110;2024-03-25T13:36:56;14.67;;;7.87;;
15132;SDS011;7667;51.232;17.110;2024-03-25T13:39:23;10.13;;;6.10;;
15132;SDS011;7667;51.232;17.110;2024-03-25T13:41:50;2.47;;;1.90;;
15132;SDS011;7667;51.232;17.110;2024-03-25T13:44:17;1.40;;;1.30;;
15132;SDS011;7667;51.232;17.110;2024-03-25T13:46:44;2.47;;;1.30;;
15132;SDS011;7667;51.232;17.110;2024-03-25T13:49:11;1.60;;;1.30;;
15132;SDS011;7667;51.232;17.110;2024-03-25T13:51:40;7.53;;;4.33;;
15132;SDS011;7667;51.232;17.110;2024-03-25T13:54:07;1.23;;;1.10;;
15132;SDS011;7667;51.232;17.110;2024-03-25T13:56:34;1.30;;;1.17;;
15132;SDS011;7667;51.232;17.110;2024-03-25T13:59:01;1.10;;;1.00;;
15132;SDS011;7667;51.232;17.110;2024-03-25T14:01:29;3.07;;;2.10;;
15132;SDS011;7667;51.232;17.110;2024-03-25T14:03:55;1.30;;;1.07;;
15132;SDS011;7667;51.232;17.110;2024-03-25T14:06:22;3.53;;;2.43;;
15132;SDS011;7667;51.232;17.110;2024-03-25T14:08:49;7.83;;;4.60;;
15132;SDS011;7667;51.232;17.110;2024-03-25T14:11:16;3.70;;;2.37;;
15132;SDS011;7667;51.232;17.110;2024-03-25T14:13:44;1.27;;;1.10;;
15132;SDS011;7667;51.232;17.110;2024-03-25T14:16:11;1.77;;;1.53;;
15132;SDS011;7667;51.232;17.110;2024-03-25T14:18:37;1.87;;;1.50;;
15132;SDS011;7667;51.232;17.110;2024-03-25T14:21:04;1.00;;;0.90;;
15132;SDS011;7667;51.232;17.110;2024-03-25T14:23:31;1.97;;;1.53;;
15132;SDS011;7667;51.232;17.110;2024-03-25T14:25:58;1.37;;;1.27;;
15132;SDS011;7667;51.232;17.110;2024-03-25T14:28:25;1.47;;;1.23;;
15132;SDS011;7667;51.232;17.110;2024-03-25T14:30:52;1.80;;;1.30;;
15132;SDS011;7667;51.232;17.110;2024-03-25T14:33:19;1.60;;;1.43;;
15132;SDS011;7667;51.232;17.110;2024-03-25T14:35:46;1.27;;;1.03;;
15132;SDS011;7667;51.232;17.110;2024-03-25T14:38:13;3.93;;;2.80;;
15132;SDS011;7667;51.232;17.110;2024-03-25T14:40:40;3.60;;;1.30;;
15132;SDS011;7667;51.232;17.110;2024-03-25T14:43:07;1.50;;;1.20;;
15132;SDS011;7667;51.232;17.110;2024-03-25T14:45:34;1.87;;;1.40;;
15132;SDS011;7667;51.232;17.110;2024-03-25T14:48:01;2.20;;;1.50;;
15132;SDS011;7667;51.232;17.110;2024-03-25T14:50:28;2.00;;;1.63;;
15132;SDS011;7667;51.232;17.110;2024-03-25T14:52:55;1.70;;;1.60;;
15132;SDS011;7667;51.232;17.110;2024-03-25T14:55:22;2.30;;;1.50;;